createdAt,value
2023-05-20T00:02:06.276Z,42.06
2023-05-20T00:07:09.447Z,42.81
2023-05-20T00:12:12.413Z,43.07
2023-05-20T00:17:15.596Z,43.38
2023-05-20T00:22:18.353Z,43.44
2023-05-20T00:27:39.667Z,43.03
2023-05-20T00:32:42.897Z,43.41
2023-05-20T00:37:46.693Z,43.52
2023-05-20T00:42:49.779Z,43.74
2023-05-20T00:47:53.281Z,43.29
2023-05-20T00:52:56.291Z,40.04
2023-05-20T00:58:18.043Z,39.46
2023-05-20T01:03:21.700Z,38.58
2023-05-20T01:08:26.337Z,38.11
2023-05-20T01:13:34.405Z,38.73
2023-05-20T01:18:39.628Z,38.02
2023-05-20T01:23:43.245Z,38.41
2023-05-20T01:28:46.350Z,38.42
2023-05-20T01:33:54.444Z,42.84
2023-05-20T01:38:59.176Z,45.06
2023-05-20T01:44:04.004Z,46.16
2023-05-20T01:49:07.431Z,46.03
2023-05-20T01:54:11.424Z,45.64
2023-05-20T01:59:14.431Z,45.89
2023-05-20T02:04:19.367Z,46.63
2023-05-20T02:09:22.361Z,48.64
2023-05-20T02:14:25.528Z,48.84
2023-05-20T02:19:28.600Z,47.98
2023-05-20T02:24:32.308Z,48.70
2023-05-20T02:29:35.685Z,47.85
2023-05-20T02:34:39.574Z,46.69
2023-05-20T02:39:42.646Z,46.18
2023-05-20T02:44:45.701Z,46.11
2023-05-20T02:49:49.043Z,44.93
2023-05-20T02:54:53.225Z,44.35
2023-05-20T02:59:56.557Z,43.96
2023-05-20T03:04:59.934Z,43.14
2023-05-20T03:10:03.532Z,43.95
2023-05-20T03:15:09.442Z,41.75
2023-05-20T03:20:14.040Z,42.37
2023-05-20T03:25:17.429Z,42.53
2023-05-20T03:30:21.894Z,41.38
2023-05-20T03:35:25.937Z,41.17
2023-05-20T03:40:29.577Z,40.49
2023-05-20T03:45:34.994Z,40.45
2023-05-20T03:50:41.553Z,41.22
2023-05-20T03:55:44.981Z,42.09
2023-05-20T04:00:49.729Z,44.77
2023-05-20T04:05:52.983Z,45.33
2023-05-20T04:10:58.001Z,46.42
2023-05-20T04:16:02.155Z,46.68
2023-05-20T04:21:06.078Z,46.35
2023-05-20T04:26:09.212Z,46.66
2023-05-20T04:31:32.091Z,44.89
2023-05-20T04:36:38.494Z,45.16
2023-05-20T04:41:41.648Z,45.49
2023-05-20T04:46:44.919Z,44.50
2023-05-20T04:51:50.317Z,44.67
2023-05-20T04:56:55.064Z,45.62
2023-05-20T05:01:58.085Z,45.90
2023-05-20T05:07:01.327Z,46.67
2023-05-20T05:12:04.631Z,44.59
2023-05-20T05:17:07.791Z,45.04
2023-05-20T05:22:10.974Z,44.42
2023-05-20T05:27:15.534Z,45.10
2023-05-20T05:32:18.728Z,45.39
2023-05-20T05:37:21.882Z,45.71
2023-05-20T05:42:25.053Z,47.10
2023-05-20T05:47:32.842Z,46.51
2023-05-20T05:52:37.113Z,46.13
2023-05-20T05:57:43.276Z,44.09
2023-05-20T06:02:49.107Z,44.99
2023-05-20T06:08:06.199Z,45.59
2023-05-20T06:13:11.206Z,44.93
2023-05-20T06:18:14.380Z,43.36
2023-05-20T06:23:17.935Z,43.55
2023-05-20T06:28:31.412Z,42.05
2023-05-20T06:33:34.608Z,41.58
2023-05-20T06:38:43.063Z,42.53
2023-05-20T06:43:49.094Z,43.11
2023-05-20T06:49:13.356Z,43.92
2023-05-20T06:54:17.196Z,41.81
2023-05-20T06:59:21.586Z,41.93
2023-05-20T07:04:24.806Z,41.70
2023-05-20T07:09:28.213Z,40.97
2023-05-20T07:14:31.515Z,39.73
2023-05-20T07:19:34.598Z,39.77
2023-05-20T07:24:38.506Z,39.36
2023-05-20T07:29:41.633Z,38.70
2023-05-20T07:34:44.574Z,38.38
2023-05-20T07:39:47.681Z,38.63
2023-05-20T07:44:50.613Z,39.27
2023-05-20T07:49:53.885Z,39.18
2023-05-20T07:54:57.389Z,39.57
2023-05-20T08:00:00.549Z,40.34
2023-05-20T08:05:05.272Z,40.84
2023-05-20T08:10:09.090Z,41.29
2023-05-20T08:15:13.395Z,41.34
2023-05-20T08:20:17.224Z,41.03
2023-05-20T08:25:38.709Z,40.16
2023-05-20T08:30:43.522Z,40.50
2023-05-20T08:35:46.885Z,40.50
2023-05-20T08:40:57.689Z,40.64
2023-05-20T08:46:03.876Z,41.08
2023-05-20T08:51:13.498Z,42.00
2023-05-20T08:56:18.183Z,42.71
2023-05-20T09:01:27.340Z,43.55
2023-05-20T09:06:30.357Z,43.83
2023-05-20T09:11:33.760Z,44.35
2023-05-20T09:16:36.729Z,44.35
2023-05-20T09:21:58.689Z,44.61
2023-05-20T09:27:01.659Z,44.83
2023-05-20T09:32:05.288Z,44.78
2023-05-20T09:37:09.511Z,44.58
2023-05-20T09:42:35.630Z,45.02
2023-05-20T09:47:43.700Z,45.28
2023-05-20T09:53:06.743Z,45.24
2023-05-20T09:58:12.759Z,44.70
2023-05-20T10:03:19.107Z,45.58
2023-05-20T10:08:52.249Z,45.15
2023-05-20T10:14:13.793Z,45.79
2023-05-20T10:19:32.724Z,45.03
2023-05-20T10:24:42.046Z,45.13
2023-05-20T10:29:57.830Z,44.23
2023-05-20T10:35:06.078Z,42.72
2023-05-20T10:40:13.727Z,42.24
2023-05-20T10:45:30.403Z,40.07
2023-05-20T10:50:54.377Z,39.72
2023-05-20T10:55:57.679Z,40.54
2023-05-20T11:01:03.626Z,40.72
2023-05-20T11:06:18.602Z,40.63
2023-05-20T11:11:23.040Z,40.27
2023-05-20T11:16:26.085Z,39.13
2023-05-20T11:21:29.096Z,39.96
2023-05-20T11:26:32.212Z,42.46
2023-05-20T11:31:37.841Z,43.21
2023-05-20T11:36:44.173Z,44.44
2023-05-20T11:41:47.644Z,44.06
2023-05-20T11:46:50.663Z,44.46
2023-05-20T11:51:53.593Z,45.32
2023-05-20T11:56:56.928Z,45.43
2023-05-20T12:02:00.383Z,45.32
2023-05-20T12:07:04.396Z,44.37
2023-05-20T12:12:07.854Z,45.50
2023-05-20T12:17:10.748Z,45.79
2023-05-20T12:22:13.850Z,45.42
2023-05-20T12:27:16.800Z,44.33
2023-05-20T12:32:21.294Z,43.09
2023-05-20T12:37:24.517Z,41.98
2023-05-20T12:42:27.746Z,41.61
2023-05-20T12:47:32.269Z,42.52
2023-05-20T12:52:53.873Z,41.75
2023-05-20T12:57:56.913Z,41.34
2023-05-20T13:03:00.263Z,41.54
2023-05-20T13:08:03.525Z,41.62
2023-05-20T13:13:06.930Z,41.10
2023-05-20T13:18:10.655Z,40.93
2023-05-20T13:23:13.777Z,42.75
2023-05-20T13:28:19.196Z,42.35
2023-05-20T13:33:41.831Z,43.65
2023-05-20T13:38:44.933Z,46.22
2023-05-20T13:44:06.721Z,47.71
2023-05-20T13:49:09.779Z,49.29
2023-05-20T13:54:12.773Z,48.56
2023-05-20T13:59:15.850Z,50.64
2023-05-20T14:04:19.304Z,51.11
2023-05-20T14:09:22.317Z,50.75
2023-05-20T14:14:25.324Z,51.80
2023-05-20T14:19:30.303Z,51.13
2023-05-20T14:24:33.324Z,50.47
2023-05-20T14:29:36.603Z,49.86
2023-05-20T14:34:39.499Z,51.40
2023-05-20T14:39:42.535Z,53.08
2023-05-20T14:44:45.925Z,50.78
2023-05-20T14:49:50.431Z,51.59
2023-05-20T14:54:53.596Z,53.26
2023-05-20T14:59:56.594Z,52.82
2023-05-20T15:05:18.377Z,51.67
2023-05-20T15:10:21.493Z,53.74
2023-05-20T15:15:24.481Z,55.72
2023-05-20T15:20:27.478Z,56.48
2023-05-20T15:25:30.921Z,55.88
2023-05-20T15:30:34.167Z,55.35
2023-05-20T15:35:37.315Z,54.54
2023-05-20T15:40:40.441Z,54.33
2023-05-20T15:45:43.653Z,54.25
2023-05-20T15:50:46.654Z,55.39
2023-05-20T15:55:49.658Z,56.40
2023-05-20T16:00:52.626Z,57.69
2023-05-20T16:05:56.377Z,58.31
2023-05-20T16:10:59.397Z,58.05
2023-05-20T16:16:02.594Z,58.27
2023-05-20T16:21:08.194Z,57.85
2023-05-20T16:26:11.903Z,58.76
2023-05-20T16:31:15.042Z,60.93
2023-05-20T16:36:18.136Z,61.14
2023-05-20T16:41:21.121Z,61.58
2023-05-20T16:46:24.144Z,62.28
2023-05-20T16:51:27.443Z,62.34
2023-05-20T16:56:48.958Z,63.28
2023-05-20T17:01:51.707Z,63.34
2023-05-20T17:06:57.054Z,63.72
2023-05-20T17:12:00.108Z,64.56
2023-05-20T17:17:03.244Z,65.21
2023-05-20T17:22:06.379Z,65.92
2023-05-20T17:27:09.404Z,66.54
2023-05-20T17:32:31.009Z,66.62
2023-05-20T17:37:34.064Z,67.04
2023-05-20T17:42:36.911Z,68.39
2023-05-20T17:47:39.813Z,69.43
2023-05-20T17:52:42.713Z,69.01
2023-05-20T17:57:45.906Z,69.58
2023-05-20T18:02:49.203Z,69.53
2023-05-20T18:07:52.571Z,69.83
2023-05-20T18:13:14.119Z,70.18
2023-05-20T18:18:17.152Z,70.40
2023-05-20T18:23:20.185Z,70.60
2023-05-20T18:28:23.145Z,70.64
2023-05-20T18:33:26.078Z,71.10
2023-05-20T18:38:28.960Z,71.31
2023-05-20T18:43:31.748Z,70.85
2023-05-20T18:48:34.632Z,71.28
2023-05-20T18:53:37.497Z,71.60
2023-05-20T18:58:40.526Z,71.29
2023-05-20T19:03:45.139Z,71.41
2023-05-20T19:08:49.824Z,71.40
2023-05-20T19:13:52.837Z,70.50
2023-05-20T19:18:55.870Z,70.27
2023-05-20T19:23:59.181Z,70.18
2023-05-20T19:29:02.172Z,70.40
2023-05-20T19:34:05.233Z,70.67
2023-05-20T19:39:11.468Z,70.02
2023-05-20T19:44:14.729Z,70.31
2023-05-20T19:49:17.713Z,70.10
2023-05-20T19:54:20.708Z,69.67
2023-05-20T19:59:23.561Z,69.09
2023-05-20T20:04:44.911Z,68.80
2023-05-20T20:09:49.280Z,69.10
2023-05-20T20:14:52.695Z,69.22
2023-05-20T20:19:55.976Z,69.22
2023-05-20T20:24:58.993Z,69.71
2023-05-20T20:30:01.855Z,69.67
2023-05-20T20:35:06.618Z,69.34
2023-05-20T20:40:13.574Z,69.77
2023-05-20T20:45:17.209Z,69.65
2023-05-20T20:50:39.021Z,69.28
2023-05-20T20:55:43.334Z,69.51
2023-05-20T21:00:48.846Z,70.25
2023-05-20T21:05:52.359Z,69.99
2023-05-20T21:11:14.486Z,70.58
2023-05-20T21:16:17.720Z,70.90
2023-05-20T21:21:21.984Z,71.19
2023-05-20T21:26:25.998Z,71.49
2023-05-20T21:31:28.991Z,72.16
2023-05-20T21:36:32.613Z,72.12
2023-05-20T21:41:35.608Z,72.01
2023-05-20T21:46:38.450Z,72.37
2023-05-20T21:51:41.238Z,72.51
2023-05-20T21:56:44.217Z,72.83
2023-05-20T22:01:47.448Z,72.92
2023-05-20T22:06:51.266Z,72.90
2023-05-20T22:11:55.455Z,73.10
2023-05-20T22:16:59.095Z,72.66
2023-05-20T22:22:02.131Z,72.83
2023-05-20T22:27:05.045Z,72.89
2023-05-20T22:32:08.019Z,73.09
2023-05-20T22:37:11.993Z,73.68
2023-05-20T22:42:14.810Z,73.89
2023-05-20T22:47:17.773Z,74.18
2023-05-20T22:52:21.602Z,74.59
2023-05-20T22:57:25.601Z,74.73
2023-05-20T23:02:30.794Z,75.01
2023-05-20T23:07:33.760Z,75.02
2023-05-20T23:12:37.370Z,75.55
2023-05-20T23:17:40.341Z,75.07
2023-05-20T23:22:43.168Z,75.03
2023-05-20T23:27:46.256Z,75.02
2023-05-20T23:33:08.117Z,75.15
2023-05-20T23:38:30.749Z,75.07
2023-05-20T23:43:33.785Z,74.72
2023-05-20T23:48:36.810Z,73.63
2023-05-20T23:53:43.500Z,72.36
2023-05-20T23:58:47.490Z,71.51
